createdAt,value
2023-10-07T00:01:46.778Z,59965.59
2023-10-07T00:06:48.947Z,60009.75
2023-10-07T00:11:50.956Z,59995.03
2023-10-07T00:16:55.821Z,59944.56
2023-10-07T00:22:00.865Z,59982.41
2023-10-07T00:27:03.408Z,60003.44
2023-10-07T00:32:06.990Z,59978.22
2023-10-07T00:37:09.184Z,60001.34
2023-10-07T00:42:11.275Z,59982.41
2023-10-07T00:47:15.318Z,59982.41
2023-10-07T00:52:29.486Z,59982.41
2023-10-07T00:57:31.814Z,59967.69
2023-10-07T01:02:35.514Z,59982.41
2023-10-07T01:07:37.654Z,59976.13
2023-10-07T01:12:43.617Z,60003.44
2023-10-07T01:17:48.179Z,59976.13
2023-10-07T01:23:04.588Z,59990.81
2023-10-07T01:28:09.613Z,60011.84
2023-10-07T01:33:35.695Z,59957.19
2023-10-07T01:38:45.275Z,59982.41
2023-10-07T01:44:05.984Z,59957.19
2023-10-07T01:49:12.874Z,59942.47
2023-10-07T01:54:16.555Z,59995.03
2023-10-07T01:59:19.476Z,59978.22
2023-10-07T02:04:28.430Z,60016.06
2023-10-07T02:09:42.108Z,59965.59
2023-10-07T02:14:44.103Z,59974.00
2023-10-07T02:19:46.114Z,59974.00
2023-10-07T02:25:00.624Z,59984.53
2023-10-07T02:30:04.268Z,59961.41
2023-10-07T02:35:10.128Z,60009.75
2023-10-07T02:40:36.290Z,59971.91
2023-10-07T02:45:40.802Z,60016.06
2023-10-07T02:50:45.626Z,59974.00
2023-10-07T02:55:55.106Z,59965.59
2023-10-07T03:01:12.122Z,59984.53
2023-10-07T03:06:18.648Z,59986.63
2023-10-07T03:11:22.566Z,59986.63
2023-10-07T03:16:24.882Z,59953.00
2023-10-07T03:21:36.842Z,59992.94
2023-10-07T03:26:42.208Z,59982.41
2023-10-07T03:31:47.235Z,59965.59
2023-10-07T03:37:18.379Z,60011.84
2023-10-07T03:42:21.769Z,59982.41
2023-10-07T03:47:25.418Z,59948.78
2023-10-07T03:52:29.504Z,60003.44
2023-10-07T03:57:34.868Z,59965.59
2023-10-07T04:02:37.102Z,59967.69
2023-10-07T04:07:39.296Z,59965.59
2023-10-07T04:12:45.298Z,59978.22
2023-10-07T04:17:47.871Z,59957.19
2023-10-07T04:23:01.557Z,59959.28
2023-10-07T04:28:08.066Z,59957.19
2023-10-07T04:33:11.415Z,59982.41
2023-10-07T04:38:36.784Z,59967.69
2023-10-07T04:43:46.336Z,59961.41
2023-10-07T04:48:57.634Z,59953.00
2023-10-07T04:54:00.230Z,59948.78
2023-10-07T04:59:12.092Z,59969.81
2023-10-07T05:04:17.522Z,59902.53
2023-10-07T05:09:20.021Z,59948.78
2023-10-07T05:14:25.777Z,59961.41
2023-10-07T05:19:28.941Z,59986.63
2023-10-07T05:24:31.138Z,59978.22
2023-10-07T05:29:34.371Z,59961.41
2023-10-07T05:34:36.828Z,59978.22
2023-10-07T05:39:39.558Z,59969.81
2023-10-07T05:44:42.924Z,59971.91
2023-10-07T05:49:45.265Z,59978.22
2023-10-07T05:54:47.372Z,59965.59
2023-10-07T05:59:52.119Z,59902.53
2023-10-07T06:04:54.222Z,59931.97
2023-10-07T06:09:56.424Z,59959.28
2023-10-07T06:15:01.013Z,60007.66
2023-10-07T06:20:26.062Z,59957.19
2023-10-07T06:25:34.569Z,59965.59
2023-10-07T06:30:39.386Z,59969.81
2023-10-07T06:35:42.407Z,59944.56
2023-10-07T06:40:44.880Z,59969.81
2023-10-07T06:45:48.470Z,59902.53
2023-10-07T06:50:53.965Z,59934.06
2023-10-07T06:55:56.305Z,59944.56
2023-10-07T07:01:11.833Z,59980.31
2023-10-07T07:06:18.235Z,59953.00
2023-10-07T07:11:20.326Z,59944.56
2023-10-07T07:16:25.366Z,59927.75
2023-10-07T07:21:27.396Z,59948.78
2023-10-07T07:26:31.658Z,59944.56
2023-10-07T07:31:35.880Z,59940.38
2023-10-07T07:36:43.519Z,59934.06
2023-10-07T07:41:58.032Z,59953.00
2023-10-07T07:47:04.122Z,59953.00
2023-10-07T07:52:09.330Z,59950.88
2023-10-07T07:57:13.548Z,59948.78
2023-10-07T08:02:18.614Z,59946.69
2023-10-07T08:07:31.124Z,59967.69
2023-10-07T08:12:37.419Z,59929.88
2023-10-07T08:17:41.511Z,59915.16
2023-10-07T08:22:46.771Z,59917.25
2023-10-07T08:27:52.859Z,59978.22
2023-10-07T08:32:56.576Z,59919.34
2023-10-07T08:38:00.548Z,59974.00
2023-10-07T08:43:05.499Z,59896.22
2023-10-07T08:48:18.527Z,59915.16
2023-10-07T08:53:24.846Z,59913.03
2023-10-07T08:58:32.214Z,59961.41
2023-10-07T09:03:40.922Z,59906.75
2023-10-07T09:08:44.780Z,59923.56
2023-10-07T09:13:48.508Z,59944.56
2023-10-07T09:18:57.264Z,59917.25
2023-10-07T09:24:03.697Z,59906.75
2023-10-07T09:29:23.283Z,59908.84
2023-10-07T09:34:43.313Z,59944.56
2023-10-07T09:39:46.316Z,59936.16
2023-10-07T09:44:49.280Z,59921.47
2023-10-07T09:49:58.663Z,59906.75
2023-10-07T09:55:28.303Z,59929.88
2023-10-07T10:00:39.485Z,59919.34
2023-10-07T10:06:05.130Z,59894.13
2023-10-07T10:11:21.322Z,59910.94
2023-10-07T10:16:45.700Z,59919.34
2023-10-07T10:21:49.554Z,59902.53
2023-10-07T10:26:51.961Z,59868.91
2023-10-07T10:31:59.844Z,59894.13
2023-10-07T10:37:07.179Z,59883.63
2023-10-07T10:42:15.715Z,59877.31
2023-10-07T10:47:22.765Z,59925.66
2023-10-07T10:52:28.124Z,59894.13
2023-10-07T10:57:30.234Z,59889.94
2023-10-07T11:02:40.732Z,59896.22
2023-10-07T11:07:47.837Z,59877.31
2023-10-07T11:12:57.843Z,59906.75
2023-10-07T11:18:14.583Z,59885.72
2023-10-07T11:23:19.757Z,59887.81
2023-10-07T11:28:24.003Z,59910.94
2023-10-07T11:33:26.345Z,59910.94
2023-10-07T11:38:30.865Z,59908.84
2023-10-07T11:43:44.732Z,59902.53
2023-10-07T11:48:47.052Z,59921.47
2023-10-07T11:53:51.346Z,59871.00
2023-10-07T11:58:53.850Z,59906.75
2023-10-07T12:03:55.951Z,59936.16
2023-10-07T12:09:07.421Z,59885.72
2023-10-07T12:14:10.120Z,59896.22
2023-10-07T12:19:18.756Z,59885.72
2023-10-07T12:24:23.011Z,59910.94
2023-10-07T12:29:25.232Z,59923.56
2023-10-07T12:34:27.710Z,59927.75
2023-10-07T12:39:40.185Z,59868.91
2023-10-07T12:44:42.329Z,59898.34
2023-10-07T12:49:46.698Z,59864.69
2023-10-07T12:54:50.210Z,59866.81
2023-10-07T12:59:53.939Z,59896.22
2023-10-07T13:04:56.637Z,59913.03
2023-10-07T13:10:02.124Z,59906.75
2023-10-07T13:15:15.547Z,59925.66
2023-10-07T13:20:21.838Z,59877.31
2023-10-07T13:25:27.286Z,59919.34
2023-10-07T13:30:31.339Z,59889.94
2023-10-07T13:35:34.254Z,59915.16
2023-10-07T13:40:38.878Z,59906.75
2023-10-07T13:45:41.104Z,59936.16
2023-10-07T13:50:43.658Z,59898.34
2023-10-07T13:55:56.576Z,59910.94
2023-10-07T14:00:58.885Z,59908.84
2023-10-07T14:06:03.616Z,59923.56
2023-10-07T14:11:08.642Z,59910.94
2023-10-07T14:21:18.220Z,59934.06
2023-10-07T14:26:21.627Z,59948.78
2023-10-07T14:31:23.876Z,59902.53
2023-10-07T14:36:26.080Z,59894.13
2023-10-07T14:41:31.567Z,59931.97
2023-10-07T14:46:34.050Z,59940.38
2023-10-07T14:51:36.135Z,59948.78
2023-10-07T14:56:42.843Z,59953.00
2023-10-07T15:01:45.232Z,59929.88
2023-10-07T15:06:49.411Z,59919.34
2023-10-07T15:11:56.952Z,59919.34
2023-10-07T15:16:59.525Z,59913.03
2023-10-07T15:22:06.481Z,59900.44
2023-10-07T15:27:10.092Z,59971.91
2023-10-07T15:32:12.654Z,59934.06
2023-10-07T15:37:15.125Z,59931.97
2023-10-07T15:42:19.111Z,59906.75
2023-10-07T15:47:21.231Z,59923.56
2023-10-07T15:52:24.005Z,59908.84
2023-10-07T15:57:27.754Z,59898.34
2023-10-07T16:02:30.151Z,59894.13
2023-10-07T16:07:35.312Z,59921.47
2023-10-07T16:12:39.575Z,59923.56
2023-10-07T16:17:41.963Z,59915.16
2023-10-07T16:22:44.050Z,59953.00
2023-10-07T16:27:47.479Z,59927.75
2023-10-07T16:32:49.943Z,59915.16
2023-10-07T16:37:52.179Z,59969.81
2023-10-07T16:42:55.619Z,59902.53
2023-10-07T16:47:58.923Z,59910.94
2023-10-07T16:53:00.977Z,59925.66
2023-10-07T17:03:07.614Z,59919.34
2023-10-07T17:08:10.679Z,59910.94
2023-10-07T17:13:15.425Z,59923.56
2023-10-07T17:18:19.120Z,59910.94
2023-10-07T17:23:21.239Z,59919.34
2023-10-07T17:28:25.112Z,59885.72
2023-10-07T17:33:27.292Z,59963.50
2023-10-07T17:38:30.227Z,59948.78
2023-10-07T17:43:33.734Z,59940.38
2023-10-07T17:48:36.137Z,59959.28
2023-10-07T17:53:38.530Z,59963.50
2023-10-07T17:58:43.535Z,59898.34
2023-10-07T18:03:45.755Z,59934.06
2023-10-07T18:08:48.105Z,59936.16
2023-10-07T18:13:51.517Z,59917.25
2023-10-07T18:18:53.565Z,59963.50
2023-10-07T18:23:55.685Z,59915.16
2023-10-07T18:29:00.480Z,59919.34
2023-10-07T18:34:02.751Z,59921.47
2023-10-07T18:39:06.757Z,59948.78
2023-10-07T18:44:10.749Z,59921.47
2023-10-07T18:49:14.822Z,59915.16
2023-10-07T18:54:16.847Z,59965.59
2023-10-07T18:59:20.885Z,59940.38
2023-10-07T19:04:23.140Z,59898.34
2023-10-07T19:09:25.177Z,59942.47
2023-10-07T19:14:28.610Z,59953.00
2023-10-07T19:19:31.336Z,59919.34
2023-10-07T19:24:34.181Z,59915.16
2023-10-07T19:29:37.702Z,59919.34
2023-10-07T19:34:39.886Z,59948.78
2023-10-07T19:39:44.514Z,59944.56
2023-10-07T19:44:48.522Z,59957.19
2023-10-07T19:49:50.757Z,59910.94
2023-10-07T19:54:53.781Z,59931.97
2023-10-07T19:59:57.208Z,59904.63
2023-10-07T20:04:59.481Z,59906.75
2023-10-07T20:10:01.645Z,59910.94
2023-10-07T20:15:06.240Z,59917.25
2023-10-07T20:20:11.936Z,59931.97
2023-10-07T20:25:14.468Z,59953.00
2023-10-07T20:30:20.823Z,59904.63
2023-10-07T20:35:23.880Z,59929.88
2023-10-07T20:40:26.508Z,59936.16
2023-10-07T20:45:30.454Z,59889.94
2023-10-07T20:50:32.606Z,59923.56
2023-10-07T20:55:42.984Z,59959.28
2023-10-07T21:00:46.374Z,59927.75
2023-10-07T21:05:48.720Z,59936.16
2023-10-07T21:10:50.888Z,59938.28
2023-10-07T21:15:57.064Z,59929.88
2023-10-07T21:20:59.526Z,59990.81
2023-10-07T21:26:01.826Z,59915.16
2023-10-07T21:31:06.273Z,59967.69
2023-10-07T21:36:08.513Z,59953.00
2023-10-07T21:41:10.758Z,59940.38
2023-10-07T21:46:14.953Z,59917.25
2023-10-07T21:51:20.713Z,59931.97
2023-10-07T21:56:23.247Z,59887.81
2023-10-07T22:01:26.694Z,59908.84
2023-10-07T22:06:30.091Z,59950.88
2023-10-07T22:11:32.342Z,59923.56
2023-10-07T22:16:36.083Z,59915.16
2023-10-07T22:21:38.892Z,59957.19
2023-10-07T22:26:41.011Z,59965.59
2023-10-07T22:31:49.593Z,59921.47
2023-10-07T22:36:55.867Z,59910.94
2023-10-07T22:41:59.112Z,59938.28
2023-10-07T22:47:08.901Z,59944.56
2023-10-07T22:52:11.290Z,59953.00
2023-10-07T22:57:15.184Z,59934.06
2023-10-07T23:02:30.425Z,59948.78
2023-10-07T23:07:43.794Z,59934.06
2023-10-07T23:12:46.025Z,59915.16
2023-10-07T23:17:52.866Z,59906.75
2023-10-07T23:22:57.831Z,59961.41
2023-10-07T23:28:06.674Z,59927.75
2023-10-07T23:33:14.459Z,59917.25
2023-10-07T23:38:20.198Z,59919.34
2023-10-07T23:43:25.552Z,59944.56
2023-10-07T23:48:29.381Z,59948.78
2023-10-07T23:53:33.030Z,59923.56
2023-10-07T23:58:43.497Z,59974.00
